Time;durP1;ratioP1;P1;durP2;ratioP2;P2;SDS_P1;SDS_P2;PMS_P1;PMS_P2;Temp;Humidity;BMP_temperature;BMP_pressure;BME280_temperature;BME280_humidity;BME280_pressure;Samples;Min_cycle;Max_cycle;Signal;HPM_P1;HPM_P2
2023/05/22 00:01:31;;;;;;;7.93;7.13;;;;;;;14.10;100.00;95859.47;5072305;27;102368;-59
2023/05/22 00:04:01;;;;;;;6.90;6.30;;;;;;;14.11;100.00;95856.50;5053717;27;102616;-60
2023/05/22 00:06:28;;;;;;;6.27;5.67;;;;;;;14.10;100.00;95854.13;5052291;27;102273;-59
2023/05/22 00:08:55;;;;;;;7.07;6.47;;;;;;;14.00;100.00;95859.59;5054073;27;102538;-60
2023/05/22 00:11:23;;;;;;;6.50;5.90;;;;;;;14.15;100.00;95859.41;5071333;27;102985;-60
2023/05/22 00:14:29;;;;;;;6.83;6.23;;;;;;;14.06;100.00;95853.13;5066809;27;102296;-60
2023/05/22 00:16:58;;;;;;;6.63;6.03;;;;;;;13.76;100.00;95864.13;5053123;27;102347;-60
2023/05/22 00:19:25;;;;;;;7.57;6.73;;;;;;;13.67;100.00;95860.44;5057451;27;103180;-59
2023/05/22 00:21:53;;;;;;;7.37;6.57;;;;;;;13.59;100.00;95858.41;5072685;27;102160;-60
2023/05/22 00:25:01;;;;;;;7.00;6.30;;;;;;;13.56;100.00;95869.63;5051047;27;103138;-60
2023/05/22 00:27:28;;;;;;;7.27;6.57;;;;;;;13.52;100.00;95869.41;5051917;27;101754;-59
2023/05/22 00:29:55;;;;;;;7.27;6.50;;;;;;;13.53;100.00;95871.00;5059505;27;105509;-59
2023/05/22 00:32:23;;;;;;;9.33;6.70;;;;;;;13.58;100.00;95870.19;5069753;27;105409;-60
2023/05/22 00:35:09;;;;;;;7.90;6.80;;;;;;;13.54;100.00;95877.97;5070607;27;101918;-59
2023/05/22 00:37:36;;;;;;;8.33;7.53;;;;;;;13.27;100.00;95882.19;5064607;27;104949;-59
2023/05/22 00:40:04;;;;;;;7.50;6.80;;;;;;;13.16;100.00;95875.31;5057387;27;105416;-60
2023/05/22 00:42:31;;;;;;;7.70;7.00;;;;;;;13.34;100.00;95877.31;5070656;27;101963;-60
2023/05/22 00:45:00;;;;;;;7.73;6.90;;;;;;;13.35;100.00;95869.03;5072074;27;105556;-59
2023/05/22 00:47:28;;;;;;;7.57;6.97;;;;;;;13.12;100.00;95871.59;5067393;27;102051;-59
2023/05/22 00:49:56;;;;;;;7.70;7.00;;;;;;;12.93;100.00;95866.09;5061054;27;104943;-60
2023/05/22 00:52:23;;;;;;;8.63;7.37;;;;;;;13.18;100.00;95867.81;5050280;27;105142;-60
2023/05/22 00:55:00;;;;;;;8.00;7.03;;;;;;;13.02;100.00;95863.69;5059538;27;101981;-60
2023/05/22 00:57:27;;;;;;;7.77;6.97;;;;;;;13.10;100.00;95871.09;5050003;27;104812;-59
2023/05/22 00:59:55;;;;;;;8.10;7.30;;;;;;;13.09;100.00;95870.28;5051453;27;102819;-60
2023/05/22 01:02:22;;;;;;;7.90;7.10;;;;;;;13.10;100.00;95871.91;5049815;27;102393;-60
2023/05/22 01:04:56;;;;;;;8.87;7.53;;;;;;;13.14;100.00;95872.94;5062229;27;104828;-59
2023/05/22 01:07:23;;;;;;;8.30;7.60;;;;;;;13.05;100.00;95861.28;5073879;27;102480;-59
2023/05/22 01:09:51;;;;;;;9.50;8.20;;;;;;;13.16;100.00;95868.13;5060959;27;102374;-60
2023/05/22 01:12:26;;;;;;;8.57;7.77;;;;;;;13.18;100.00;95873.97;5050280;27;102506;-60
2023/05/22 01:15:03;;;;;;;9.20;8.00;;;;;;;13.24;100.00;95870.19;5051217;27;102191;-60
2023/05/22 01:17:39;;;;;;;7.97;7.27;;;;;;;13.24;100.00;95877.41;5067710;27;105283;-60
2023/05/22 01:20:17;;;;;;;7.70;6.97;;;;;;;13.16;100.00;95870.00;5057823;27;105810;-60
2023/05/22 01:23:33;;;;;;;7.93;7.23;;;;;;;13.07;100.00;95876.97;5060865;27;101842;-60
2023/05/22 01:26:19;;;;;;;8.10;7.30;;;;;;;12.75;100.00;95873.97;5061742;27;105155;-60
2023/05/22 01:29:04;;;;;;;8.93;7.23;;;;;;;12.82;100.00;95866.47;5049952;27;103556;-60
2023/05/22 01:31:39;;;;;;;7.60;6.90;;;;;;;12.35;100.00;95880.31;5054317;27;102214;-60
2023/05/22 01:34:28;;;;;;;7.97;7.20;;;;;;;12.53;100.00;95876.25;5056539;27;105466;-59
2023/05/22 01:36:56;;;;;;;7.77;7.07;;;;;;;12.53;100.00;95878.91;5068826;27;102008;-60
2023/05/22 01:39:27;;;;;;;9.67;7.50;;;;;;;12.41;100.00;95879.22;5070901;27;102504;-59
2023/05/22 01:41:55;;;;;;;8.10;7.40;;;;;;;12.43;100.00;95892.28;5068377;27;106030;-60
2023/05/22 01:44:30;;;;;;;8.17;7.37;;;;;;;12.26;100.00;95891.81;5050540;27;102708;-59
2023/05/22 01:47:03;;;;;;;7.57;6.87;;;;;;;12.22;100.00;95888.88;5049533;27;103868;-60
2023/05/22 01:49:32;;;;;;;7.33;6.73;;;;;;;12.26;100.00;95883.84;5068626;27;105189;-60
2023/05/22 01:52:08;;;;;;;7.57;6.87;;;;;;;12.17;100.00;95894.25;5073009;27;101996;-60
2023/05/22 01:54:51;;;;;;;8.00;7.20;;;;;;;12.29;100.00;95900.06;5050933;27;102671;-60
2023/05/22 01:57:21;;;;;;;7.53;6.83;;;;;;;12.06;100.00;95906.03;5049104;27;101894;-60
2023/05/22 01:59:53;;;;;;;7.43;6.73;;;;;;;11.93;100.00;95903.13;5048912;27;105349;-60
2023/05/22 02:02:24;;;;;;;7.57;6.80;;;;;;;11.70;100.00;95903.69;5050973;27;102515;-60
2023/05/22 02:05:10;;;;;;;7.17;6.40;;;;;;;11.74;100.00;95905.56;5065092;27;101830;-60
2023/05/22 02:07:39;;;;;;;7.70;7.00;;;;;;;11.68;100.00;95905.81;5068662;27;105612;-59
2023/05/22 02:10:08;;;;;;;8.00;7.20;;;;;;;11.56;100.00;95900.72;5066971;27;105857;-59
2023/05/22 02:12:37;;;;;;;8.57;7.73;;;;;;;11.76;100.00;95902.59;5069350;27;101822;-60
2023/05/22 02:15:08;;;;;;;9.07;8.17;;;;;;;11.78;100.00;95905.81;5071021;27;105550;-59
2023/05/22 02:17:40;;;;;;;8.10;7.30;;;;;;;11.82;100.00;95901.56;5058420;27;101961;-60
2023/05/22 02:20:13;;;;;;;9.67;8.50;;;;;;;11.79;100.00;95902.06;5057859;27;105082;-60
2023/05/22 02:22:43;;;;;;;8.93;8.13;;;;;;;11.72;100.00;95896.22;5068730;27;105615;-59
2023/05/22 02:25:45;;;;;;;9.10;8.20;;;;;;;11.76;100.00;95895.41;5068711;27;102310;-60
2023/05/22 02:28:12;;;;;;;8.63;7.73;;;;;;;11.75;100.00;95907.16;5054392;27;102930;-60
2023/05/22 02:30:39;;;;;;;10.97;8.40;;;;;;;11.73;100.00;95905.81;5049022;27;105065;-59
2023/05/22 02:33:08;;;;;;;9.10;8.20;;;;;;;11.85;100.00;95903.66;5048646;27;101984;-59
2023/05/22 02:35:35;;;;;;;8.43;7.60;;;;;;;11.70;100.00;95898.34;5049305;27;103935;-60
2023/05/22 02:38:02;;;;;;;8.20;7.40;;;;;;;11.74;100.00;95904.75;5051407;27;104202;-60
2023/05/22 02:40:29;;;;;;;9.40;8.50;;;;;;;11.68;100.00;95908.47;5060418;27;104894;-59
2023/05/22 02:42:56;;;;;;;9.00;8.20;;;;;;;11.71;100.00;95900.75;5068398;27;105558;-60
2023/05/22 02:45:27;;;;;;;9.00;8.10;;;;;;;11.81;100.00;95902.59;5068659;27;101894;-59
2023/05/22 02:47:54;;;;;;;8.47;7.60;;;;;;;11.77;100.00;95899.66;5068417;27;104805;-59
2023/05/22 02:50:23;;;;;;;8.77;7.97;;;;;;;11.59;100.00;95904.75;5057401;27;105040;-60
2023/05/22 02:52:50;;;;;;;9.77;8.17;;;;;;;11.60;100.00;95909.00;5048668;27;102528;-60
2023/05/22 02:55:17;;;;;;;9.40;8.50;;;;;;;11.26;100.00;95910.59;5048261;27;103618;-59
2023/05/22 02:57:44;;;;;;;8.63;7.73;;;;;;;11.30;100.00;95917.81;5055868;27;105042;-60
2023/05/22 03:00:11;;;;;;;8.57;7.77;;;;;;;11.26;100.00;95918.56;5071661;27;102015;-59
2023/05/22 03:02:38;;;;;;;9.03;8.23;;;;;;;11.36;100.00;95915.91;5053632;27;105881;-60
2023/05/22 03:05:06;;;;;;;9.70;8.23;;;;;;;11.17;100.00;95917.53;5051586;27;101878;-59
2023/05/22 03:07:35;;;;;;;9.07;8.27;;;;;;;11.30;100.00;95914.31;5067948;27;105185;-60
2023/05/22 03:10:03;;;;;;;9.27;8.07;;;;;;;11.31;100.00;95915.91;5071517;27;105363;-60
2023/05/22 03:12:30;;;;;;;9.03;8.13;;;;;;;11.37;100.00;95914.84;5071770;27;101993;-60
2023/05/22 03:15:09;;;;;;;9.13;8.23;;;;;;;11.38;100.00;95921.78;5071819;27;104882;-59
2023/05/22 03:17:38;;;;;;;10.10;8.47;;;;;;;11.33;100.00;95921.78;5071236;27;105211;-59
2023/05/22 03:20:07;;;;;;;9.13;7.97;;;;;;;11.27;100.00;95931.63;5070145;27;102020;-59
2023/05/22 03:22:36;;;;;;;9.03;8.13;;;;;;;11.14;100.00;95937.47;5074443;27;105215;-59
2023/05/22 03:25:19;;;;;;;8.77;7.87;;;;;;;11.19;100.00;95940.16;5071235;27;101889;-60
2023/05/22 03:27:46;;;;;;;9.43;8.07;;;;;;;11.13;100.00;95932.41;5063670;27;105408;-59
2023/05/22 03:30:14;;;;;;;9.50;8.57;;;;;;;11.24;100.00;95942.78;5053243;27;105216;-59
2023/05/22 03:32:51;;;;;;;8.53;7.73;;;;;;;11.16;100.00;95934.53;5071814;27;101933;-60
2023/05/22 03:35:56;;;;;;;9.57;8.67;;;;;;;11.04;100.00;95937.47;5072670;27;102808;-59
2023/05/22 03:38:25;;;;;;;9.33;8.43;;;;;;;11.09;100.00;95940.13;5070904;27;103713;-59
2023/05/22 03:40:53;;;;;;;10.37;8.40;;;;;;;11.12;100.00;95941.47;5062653;27;103311;-59
2023/05/22 03:43:42;;;;;;;9.87;8.87;;;;;;;11.20;100.00;95935.59;5051755;27;105074;-60
2023/05/22 03:46:09;;;;;;;9.83;8.93;;;;;;;11.26;100.00;95940.69;5054084;27;101994;-60
2023/05/22 03:48:36;;;;;;;9.87;8.87;;;;;;;11.35;100.00;95932.97;5051063;27;105273;-59
2023/05/22 03:51:04;;;;;;;9.93;8.67;;;;;;;11.29;100.00;95936.69;5060204;27;103963;-60
2023/05/22 03:53:41;;;;;;;9.87;8.87;;;;;;;11.40;100.00;95930.31;5071038;27;101894;-59
2023/05/22 03:56:08;;;;;;;10.70;8.60;;;;;;;11.40;100.00;95936.41;5068229;27;105217;-59
2023/05/22 03:58:35;;;;;;;8.97;8.17;;;;;;;11.23;100.00;95937.75;5057207;27;105033;-60
2023/05/22 04:01:02;;;;;;;8.87;7.97;;;;;;;11.12;100.00;95941.47;5060017;27;101962;-59
2023/05/22 04:03:51;;;;;;;9.43;8.47;;;;;;;11.19;100.00;95939.34;5071262;27;105153;-60
2023/05/22 04:06:20;;;;;;;9.43;8.53;;;;;;;11.34;100.00;95944.69;5061663;27;105249;-60
2023/05/22 04:08:49;;;;;;;11.13;8.23;;;;;;;11.30;100.00;95944.41;5065120;27;103623;-60
2023/05/22 04:11:17;;;;;;;10.17;8.97;;;;;;;11.38;100.00;95948.38;5069384;27;101897;-59
2023/05/22 04:14:03;;;;;;;9.47;8.57;;;;;;;11.42;100.00;95949.47;5070535;27;101988;-59
2023/05/22 04:16:30;;;;;;;11.00;9.67;;;;;;;11.56;100.00;95950.53;5050560;27;105130;-59
2023/05/22 04:18:57;;;;;;;9.80;8.80;;;;;;;11.55;100.00;95959.59;5065110;27;105504;-59
2023/05/22 04:21:24;;;;;;;10.30;9.30;;;;;;;11.74;100.00;95955.34;5054981;27;101944;-60
2023/05/22 04:24:23;;;;;;;11.23;9.50;;;;;;;11.89;100.00;95960.66;5064320;27;104923;-59
2023/05/22 04:26:50;;;;;;;9.93;8.90;;;;;;;11.98;100.00;95954.53;5071942;27;102771;-59
2023/05/22 04:29:18;;;;;;;10.20;9.20;;;;;;;12.07;100.00;95965.44;5073313;27;101972;-59
2023/05/22 04:31:45;;;;;;;10.60;9.03;;;;;;;12.09;100.00;95960.63;5053259;27;105704;-59
2023/05/22 04:34:52;;;;;;;9.63;8.63;;;;;;;12.21;100.00;95969.16;5059970;27;102278;-59
2023/05/22 04:37:20;;;;;;;9.47;8.47;;;;;;;12.34;100.00;95963.25;5068389;27;102550;-59
2023/05/22 04:39:52;;;;;;;9.67;8.77;;;;;;;12.41;100.00;95969.88;5049578;27;105945;-60
2023/05/22 04:42:19;;;;;;;9.00;8.10;;;;;;;12.54;100.00;95969.28;5049864;27;101902;-59
2023/05/22 04:45:07;;;;;;;9.63;8.63;;;;;;;12.67;100.00;95973.25;5056933;27;105193;-59
2023/05/22 04:47:34;;;;;;;9.43;8.43;;;;;;;12.82;100.00;95970.53;5069729;27;105364;-59
2023/05/22 04:50:07;;;;;;;9.23;8.33;;;;;;;12.98;100.00;95977.41;5067933;27;103533;-59
2023/05/22 04:52:34;;;;;;;8.93;8.13;;;;;;;13.11;100.00;95982.94;5035736;27;103727;-60
2023/05/22 04:55:05;;;;;;;11.20;9.70;;;;;;;13.39;100.00;95981.44;5058090;27;102258;-59
2023/05/22 04:57:32;;;;;;;11.63;9.20;;;;;;;13.64;100.00;95973.25;5068129;27;105258;-59
2023/05/22 05:00:00;;;;;;;11.37;9.07;;;;;;;13.81;100.00;95970.97;5049172;27;105251;-60
2023/05/22 05:02:26;;;;;;;11.23;8.87;;;;;;;13.98;100.00;95968.66;5050769;27;101949;-59
2023/05/22 05:05:16;;;;;;;9.77;8.30;;;;;;;14.18;100.00;95968.50;5052591;27;105394;-59
2023/05/22 05:07:43;;;;;;;13.90;8.87;;;;;;;14.24;100.00;95967.38;5069539;27;105552;-59
2023/05/22 05:10:12;;;;;;;8.50;7.60;;;;;;;14.37;100.00;95964.84;5069689;27;101935;-59
2023/05/22 05:12:39;;;;;;;9.73;7.93;;;;;;;14.55;100.00;95966.00;5056942;27;105052;-59
2023/05/22 05:15:21;;;;;;;9.50;7.60;;;;;;;14.76;100.00;95967.31;5056071;27;105676;-59
2023/05/22 05:17:48;;;;;;;12.43;8.43;;;;;;;14.90;100.00;95960.19;5066773;27;104951;-59
2023/05/22 05:20:15;;;;;;;10.90;7.30;;;;;;;15.10;100.00;95966.06;5049041;27;105103;-59
2023/05/22 05:22:44;;;;;;;10.10;7.23;;;;;;;15.17;100.00;95960.38;5062364;27;102079;-59
2023/05/22 05:25:37;;;;;;;7.20;6.20;;;;;;;15.21;100.00;95969.44;5067296;27;105803;-59
2023/05/22 05:28:09;;;;;;;7.37;6.37;;;;;;;15.30;100.00;95968.47;5068901;27;104085;-59
2023/05/22 05:30:36;;;;;;;6.50;5.57;;;;;;;15.30;100.00;95960.44;5068324;27;101894;-59
2023/05/22 05:33:18;;;;;;;5.97;5.27;;;;;;;15.41;100.00;95967.28;5053771;27;103787;-59
2023/05/22 05:36:03;;;;;;;5.73;5.13;;;;;;;15.61;100.00;95956.25;5068566;27;105477;-59
2023/05/22 05:38:32;;;;;;;6.20;5.00;;;;;;;15.80;100.00;95956.22;5073317;27;102254;-59
2023/05/22 05:41:00;;;;;;;6.20;5.60;;;;;;;15.86;100.00;95953.16;5067236;27;104022;-59
2023/05/22 05:43:32;;;;;;;5.63;5.13;;;;;;;15.94;100.00;95955.19;5034589;27;102259;-59
2023/05/22 05:46:04;;;;;;;7.43;5.10;;;;;;;16.05;100.00;95958.47;5049354;27;104811;-59
2023/05/22 05:48:32;;;;;;;9.10;5.70;;;;;;;16.15;100.00;95955.63;5048788;27;105005;-59
2023/05/22 05:50:59;;;;;;;5.70;5.20;;;;;;;16.23;100.00;95949.56;5049635;27;101828;-59
2023/05/22 05:53:52;;;;;;;5.70;5.20;;;;;;;16.41;100.00;95962.16;5066395;27;104803;-59
2023/05/22 05:56:22;;;;;;;8.47;6.73;;;;;;;16.39;100.00;95957.06;5068871;27;104966;-59
2023/05/22 05:58:49;;;;;;;6.27;5.30;;;;;;;16.43;100.00;95957.28;5071007;27;102338;-59
2023/05/22 06:01:34;;;;;;;7.53;5.70;;;;;;;16.74;100.00;95963.66;5068731;27;105152;-59
2023/05/22 06:04:09;;;;;;;5.60;5.00;;;;;;;17.00;100.00;95965.50;5069129;27;102058;-59
2023/05/22 06:06:38;;;;;;;7.27;5.40;;;;;;;17.18;100.00;95969.19;5067618;27;104797;-59
2023/05/22 06:09:11;;;;;;;5.40;4.90;;;;;;;17.50;100.00;95972.50;5046696;27;102383;-59
2023/05/22 06:11:58;;;;;;;6.93;5.27;;;;;;;17.67;100.00;95967.28;5047431;27;101755;-59
2023/05/22 06:14:45;;;;;;;7.30;5.70;;;;;;;17.64;100.00;95967.06;5048804;27;105320;-59
2023/05/22 06:17:13;;;;;;;6.87;5.37;;;;;;;17.77;100.00;95971.63;5064163;27;103671;-59
2023/05/22 06:19:42;;;;;;;6.27;5.67;;;;;;;17.97;100.00;95969.22;5069080;27;102045;-59
2023/05/22 06:22:09;;;;;;;6.57;6.07;;;;;;;17.95;100.00;95959.88;5070235;27;105007;-59
2023/05/22 06:28:04;;;;;;;6.70;5.70;;;;;;;18.29;100.00;95957.38;5067739;27;105661;-59
2023/05/22 06:30:32;;;;;;;5.70;5.20;;;;;;;18.42;100.00;95960.00;5064303;27;104079;-59
2023/05/22 06:32:59;;;;;;;5.53;5.03;;;;;;;18.60;100.00;95958.19;5053576;27;102378;-59
2023/05/22 06:35:36;;;;;;;6.27;5.40;;;;;;;18.87;100.00;95957.97;5066639;27;105964;-59
2023/05/22 06:38:03;;;;;;;5.97;5.47;;;;;;;18.95;100.00;95959.91;5052701;27;105131;-59
2023/05/22 06:40:30;;;;;;;5.73;5.17;;;;;;;19.09;100.00;95957.88;5052225;27;101721;-59
2023/05/22 06:43:04;;;;;;;5.43;4.90;;;;;;;19.10;100.00;95952.19;5057286;27;105252;-59
2023/05/22 06:45:37;;;;;;;6.50;5.00;;;;;;;18.87;100.00;95955.28;5073684;27;104877;-59
2023/05/22 06:48:22;;;;;;;11.50;5.50;;;;;;;19.28;100.00;95953.00;5070495;27;102264;-59
2023/05/22 06:51:05;;;;;;;5.80;4.70;;;;;;;19.41;100.00;95949.41;5069332;27;105530;-59
2023/05/22 06:53:33;;;;;;;5.10;4.60;;;;;;;19.65;100.00;95955.91;5072238;27;102296;-59
2023/05/22 06:56:00;;;;;;;5.27;4.77;;;;;;;19.87;100.00;95954.94;5053316;27;104327;-59
2023/05/22 06:58:39;;;;;;;7.23;5.03;;;;;;;19.77;100.00;95961.47;5057849;27;105536;-59
2023/05/22 07:01:07;;;;;;;6.43;5.30;;;;;;;19.72;100.00;95958.16;5059197;27;102069;-59
2023/05/22 07:03:46;;;;;;;5.43;4.93;;;;;;;19.80;100.00;95957.34;5065565;27;105206;-59
2023/05/22 07:06:37;;;;;;;6.50;5.23;;;;;;;19.78;100.00;95967.66;5059390;27;103567;-59
2023/05/22 07:09:06;;;;;;;8.30;4.80;;;;;;;19.84;100.00;95966.38;5072212;27;101894;-60
2023/05/22 07:11:34;;;;;;;6.83;4.80;;;;;;;20.00;100.00;95962.88;5054351;27;105425;-59
2023/05/22 07:14:11;;;;;;;6.40;5.10;;;;;;;20.23;100.00;95974.31;5053093;27;102077;-59
2023/05/22 07:16:39;;;;;;;6.07;5.00;;;;;;;20.30;100.00;95969.19;5051445;27;104942;-59
2023/05/22 07:19:07;;;;;;;6.77;5.27;;;;;;;20.52;100.00;95977.88;5053129;27;105664;-59
2023/05/22 07:21:35;;;;;;;5.60;4.60;;;;;;;20.85;100.00;95975.34;5052544;27;101931;-60
2023/05/22 07:24:09;;;;;;;11.40;4.87;;;;;;;20.63;96.60;95970.19;5057745;27;105053;-60
2023/05/22 07:26:45;;;;;;;5.67;4.97;;;;;;;20.55;92.80;95976.44;5065696;27;103744;-59
2023/05/22 07:29:13;;;;;;;5.50;4.77;;;;;;;20.73;97.83;95977.97;5058232;27;102358;-59
2023/05/22 07:31:41;;;;;;;8.17;5.17;;;;;;;20.78;100.00;95981.28;5055103;27;104951;-60
2023/05/22 07:34:33;;;;;;;5.60;4.70;;;;;;;21.17;100.00;95974.75;5066274;27;102181;-60
2023/05/22 07:37:00;;;;;;;5.93;4.67;;;;;;;21.49;98.18;95965.97;5067090;27;104918;-60
2023/05/22 07:39:27;;;;;;;5.17;4.63;;;;;;;21.36;98.71;95969.72;5070555;27;105361;-60
2023/05/22 07:41:56;;;;;;;4.67;4.27;;;;;;;21.55;89.76;95967.34;5069643;27;101966;-60
2023/05/22 07:44:38;;;;;;;6.20;4.70;;;;;;;21.95;85.84;95971.19;5070285;27;104899;-59
2023/05/22 07:47:05;;;;;;;6.23;4.27;;;;;;;21.82;76.38;95973.06;5067888;27;105011;-60
2023/05/22 07:49:33;;;;;;;4.40;4.00;;;;;;;22.27;71.76;95963.09;5056224;27;101918;-60
2023/05/22 07:52:01;;;;;;;4.73;4.20;;;;;;;22.28;62.49;95966.59;5050933;27;104016;-59
2023/05/22 07:54:39;;;;;;;6.23;3.93;;;;;;;22.84;65.13;95966.59;5068773;27;105786;-60
2023/05/22 07:57:08;;;;;;;4.97;3.90;;;;;;;23.01;59.83;95965.59;5070971;27;104657;-60
2023/05/22 07:59:42;;;;;;;5.20;4.30;;;;;;;23.21;59.67;95959.31;5070091;27;105223;-59
2023/05/22 08:02:09;;;;;;;4.77;4.17;;;;;;;23.27;64.97;95960.66;5056534;27;102065;-61
2023/05/22 08:04:43;;;;;;;6.40;4.00;;;;;;;23.24;59.58;95959.41;5070849;27;105023;-60
2023/05/22 08:07:10;;;;;;;5.07;4.30;;;;;;;23.31;63.79;95948.78;5065564;27;104386;-61
2023/05/22 08:09:37;;;;;;;4.87;4.00;;;;;;;23.59;56.76;95954.28;5058274;27;103597;-61
2023/05/22 08:12:05;;;;;;;5.03;4.03;;;;;;;23.68;56.13;95946.78;5054157;27;105470;-61
2023/05/22 08:14:32;;;;;;;5.10;3.60;;;;;;;23.87;53.80;95952.38;5058364;27;105851;-61
2023/05/22 08:17:00;;;;;;;5.27;3.60;;;;;;;24.22;52.10;95953.38;5052956;27;102512;-61
2023/05/22 08:19:27;;;;;;;3.80;3.50;;;;;;;24.37;53.73;95950.72;5087030;27;105534;-61
2023/05/22 08:21:56;;;;;;;4.53;3.43;;;;;;;24.41;49.09;95948.09;5070599;27;102075;-61
2023/05/22 08:24:58;;;;;;;4.70;3.87;;;;;;;24.08;50.42;95945.63;5067129;27;104028;-61
2023/05/22 08:27:25;;;;;;;4.20;3.80;;;;;;;24.54;53.35;95941.44;5049234;27;104070;-61
2023/05/22 08:29:52;;;;;;;4.30;3.93;;;;;;;24.80;50.27;95947.97;5049654;27;102314;-61
2023/05/22 08:32:20;;;;;;;4.03;3.63;;;;;;;24.77;48.37;95943.25;5052906;27;102402;-60
2023/05/22 08:34:58;;;;;;;3.87;3.47;;;;;;;25.14;46.15;95939.09;5055732;27;102484;-60
2023/05/22 08:37:24;;;;;;;4.30;3.80;;;;;;;25.27;49.38;95942.50;5070309;27;102093;-60
2023/05/22 08:39:51;;;;;;;4.27;3.50;;;;;;;25.58;50.33;95929.63;5069759;27;106063;-61
2023/05/22 08:42:19;;;;;;;4.13;3.73;;;;;;;25.60;50.24;95935.50;5069630;27;101866;-60
2023/05/22 08:44:47;;;;;;;3.37;3.07;;;;;;;25.69;42.92;95929.84;5070142;27;103528;-60
2023/05/22 08:47:15;;;;;;;3.77;3.50;;;;;;;26.01;42.54;95934.06;5062785;27;105424;-60
2023/05/22 08:49:46;;;;;;;3.70;3.40;;;;;;;25.46;41.05;95934.41;5062287;27;103354;-61
2023/05/22 08:52:18;;;;;;;3.70;3.40;;;;;;;25.61;42.78;95930.84;5068876;27;105609;-60
2023/05/22 08:54:52;;;;;;;3.93;3.43;;;;;;;25.23;43.88;95933.47;5068910;27;105727;-60
2023/05/22 08:57:20;;;;;;;4.40;3.50;;;;;;;26.00;41.65;95927.03;5070262;27;101835;-61
2023/05/22 08:59:48;;;;;;;4.20;3.80;;;;;;;26.04;41.57;95925.94;5061492;27;102036;-60
2023/05/22 09:02:17;;;;;;;3.80;3.50;;;;;;;26.30;40.73;95919.81;5067820;27;102211;-62
2023/05/22 09:05:12;;;;;;;5.60;3.97;;;;;;;25.91;40.33;95929.97;5062195;27;105863;-60
2023/05/22 09:07:39;;;;;;;3.93;3.50;;;;;;;25.50;40.91;95929.84;5050466;27;106256;-60
2023/05/22 09:10:07;;;;;;;4.40;4.00;;;;;;;25.76;41.36;95927.25;5067500;27;102073;-60
2023/05/22 09:12:34;;;;;;;6.53;3.57;;;;;;;26.11;40.41;95933.47;5053252;27;105307;-63
2023/05/22 09:15:10;;;;;;;3.87;3.33;;;;;;;26.24;39.60;95930.25;5067986;27;105796;-62
2023/05/22 09:17:39;;;;;;;3.40;3.10;;;;;;;26.50;39.44;95918.63;5068051;27;101893;-63
2023/05/22 09:20:08;;;;;;;5.63;3.70;;;;;;;26.74;41.09;95921.03;5068972;27;105487;-62
2023/05/22 09:22:38;;;;;;;4.13;3.83;;;;;;;26.31;38.45;95921.41;5070212;27;106614;-61
2023/05/22 09:25:06;;;;;;;5.33;3.60;;;;;;;26.43;39.08;95924.72;5061511;27;105655;-61
2023/05/22 09:27:34;;;;;;;3.87;3.57;;;;;;;26.16;40.38;95923.06;5059210;27;105798;-61
2023/05/22 09:30:01;;;;;;;4.57;3.83;;;;;;;26.33;39.89;95919.88;5066466;27;101982;-61
2023/05/22 09:32:29;;;;;;;3.60;3.30;;;;;;;26.93;40.08;95926.44;5055936;27;105316;-60
2023/05/22 09:35:02;;;;;;;4.20;3.80;;;;;;;27.50;40.18;95923.41;5063085;27;102857;-60
2023/05/22 09:37:33;;;;;;;4.07;3.77;;;;;;;27.51;40.08;95927.75;5056835;27;101954;-60
2023/05/22 09:40:06;;;;;;;5.43;3.80;;;;;;;27.08;38.14;95922.78;5050451;27;102596;-60
2023/05/22 09:42:34;;;;;;;4.47;4.07;;;;;;;27.10;38.10;95928.66;5051800;27;102648;-63
2023/05/22 09:45:08;;;;;;;4.50;4.00;;;;;;;26.98;38.57;95926.13;5070367;27;102430;-64
2023/05/22 09:47:35;;;;;;;4.07;3.67;;;;;;;27.74;40.15;95928.44;5067685;27;103002;-64
2023/05/22 09:50:06;;;;;;;5.00;4.00;;;;;;;27.71;38.45;95921.78;5055360;27;102345;-64
2023/05/22 09:52:34;;;;;;;4.33;3.87;;;;;;;27.53;37.93;95923.50;5070765;27;102479;-64
2023/05/22 09:55:10;;;;;;;4.57;3.87;;;;;;;27.13;37.99;95911.53;5062889;27;102731;-64
2023/05/22 09:57:42;;;;;;;4.93;4.20;;;;;;;27.67;39.76;95920.16;5060446;27;103020;-64
2023/05/22 10:00:17;;;;;;;4.10;3.80;;;;;;;28.21;37.01;95915.78;5056314;27;104722;-64
2023/05/22 10:02:47;;;;;;;4.17;3.80;;;;;;;28.07;37.16;95917.56;5070117;27;102974;-64
2023/05/22 10:05:43;;;;;;;4.00;3.70;;;;;;;28.30;38.23;95918.22;5061606;27;102074;-64
2023/05/22 10:08:14;;;;;;;4.63;4.17;;;;;;;27.80;36.75;95905.13;5067243;27;105421;-64
2023/05/22 10:10:43;;;;;;;4.33;3.90;;;;;;;27.85;38.22;95908.31;5060409;27;102057;-64
2023/05/22 10:13:11;;;;;;;6.57;4.30;;;;;;;28.14;36.77;95907.50;5070848;27;105315;-64
2023/05/22 10:15:38;;;;;;;4.10;3.57;;;;;;;28.68;37.96;95906.91;5073664;27;102710;-64
2023/05/22 10:18:08;;;;;;;6.20;3.70;;;;;;;28.44;35.98;95904.72;5070738;27;102291;-64
2023/05/22 10:20:36;;;;;;;4.82;3.63;;;;;;;28.30;36.06;95910.81;5069435;27;102547;-64
2023/05/22 10:23:03;;;;;;;4.40;4.00;;;;;;;28.57;36.98;95900.53;5068330;27;102510;-64
2023/05/22 10:25:30;;;;;;;4.50;4.10;;;;;;;29.13;36.86;95901.03;5059015;27;101817;-64
2023/05/22 10:27:59;;;;;;;3.80;3.50;;;;;;;28.59;35.52;95895.47;5066920;27;103451;-65
2023/05/22 10:30:34;;;;;;;4.10;3.80;;;;;;;28.10;36.40;95897.66;5055747;27;101886;-65
2023/05/22 10:33:38;;;;;;;4.97;4.22;;;;;;;27.75;37.67;95891.75;5037313;27;102798;-64
2023/05/22 10:36:10;;;;;;;4.83;3.83;;;;;;;27.90;37.88;95902.50;5070860;27;106063;-64
2023/05/22 10:39:04;;;;;;;4.87;4.30;;;;;;;27.69;38.48;95896.75;5055846;27;103574;-64
2023/05/22 10:41:31;;;;;;;4.57;4.18;;;;;;;28.68;38.33;95895.97;5053444;27;102833;-64
2023/05/22 10:44:30;;;;;;;4.43;4.10;;;;;;;28.68;37.87;95893.22;5065239;27;102507;-64
2023/05/22 10:46:56;;;;;;;4.63;4.18;;;;;;;27.74;38.03;95895.66;5072004;27;101955;-64
2023/05/22 10:49:24;;;;;;;4.95;4.47;;;;;;;27.50;39.77;95891.44;5073661;27;102311;-64
2023/05/22 10:51:56;;;;;;;4.80;4.40;;;;;;;28.11;38.74;95891.06;5074505;27;103057;-64
2023/05/22 10:54:47;;;;;;;5.67;4.33;;;;;;;28.71;40.18;95889.75;5073335;27;102480;-64
2023/05/22 10:57:16;;;;;;;4.53;4.13;;;;;;;28.41;39.32;95897.25;5057309;27;102571;-64
2023/05/22 10:59:47;;;;;;;5.40;4.18;;;;;;;28.61;39.24;95887.69;5052868;27;102523;-64
2023/05/22 11:02:22;;;;;;;4.47;4.18;;;;;;;27.19;39.20;95891.00;5063461;27;102367;-64
2023/05/22 11:05:35;;;;;;;4.90;4.25;;;;;;;27.85;39.15;95885.66;5071231;27;106644;-64
2023/05/22 11:08:32;;;;;;;4.77;4.37;;;;;;;27.92;38.92;95880.28;5055961;27;102280;-65
2023/05/22 11:11:11;;;;;;;4.93;4.53;;;;;;;27.80;39.76;95880.53;5052633;27;102317;-64
2023/05/22 11:13:39;;;;;;;7.93;4.60;;;;;;;28.89;41.22;95875.00;5061104;27;106008;-63
2023/05/22 11:16:09;;;;;;;4.40;3.93;;;;;;;29.52;40.63;95877.41;5076971;27;101989;-63
2023/05/22 11:18:35;;;;;;;6.55;4.15;;;;;;;29.59;39.02;95874.75;5085605;27;106349;-63
2023/05/22 11:21:04;;;;;;;5.35;4.95;;;;;;;29.47;37.63;95875.84;5092233;27;101947;-62
2023/05/22 11:23:41;;;;;;;5.50;5.00;;;;;;;29.13;38.83;95866.25;5082305;27;105293;-62
2023/05/22 11:26:19;;;;;;;5.47;4.97;;;;;;;29.62;38.38;95860.28;5055071;27;105332;-62
2023/05/22 11:28:50;;;;;;;5.00;4.60;;;;;;;30.21;42.18;95862.50;5050805;27;102338;-64
2023/05/22 11:31:19;;;;;;;4.97;4.57;;;;;;;29.78;40.32;95860.75;5053089;27;104158;-63
2023/05/22 11:34:12;;;;;;;4.80;4.40;;;;;;;30.32;41.70;95858.59;5071077;27;103697;-61
2023/05/22 11:36:40;;;;;;;4.93;4.35;;;;;;;30.53;39.61;95861.38;5071573;27;101814;-60
2023/05/22 11:39:06;;;;;;;4.72;4.32;;;;;;;31.05;39.58;95848.88;5074298;27;105063;-60
2023/05/22 11:41:34;;;;;;;4.75;4.30;;;;;;;31.29;36.94;95856.31;5067561;27;102362;-61
2023/05/22 11:44:35;;;;;;;5.15;4.30;;;;;;;31.01;37.69;95853.56;5063913;27;105074;-58
2023/05/22 11:47:03;;;;;;;4.57;4.15;;;;;;;31.40;37.84;95854.31;5051879;27;102965;-57
2023/05/22 11:49:30;;;;;;;4.90;4.50;;;;;;;30.40;34.85;95842.94;5051277;27;102128;-59